Terminal Aerodrome Forecast
Issued by NWS

Home | Current Version | Previous Version | Text Only | Print | Product List | Glossary On
Versions: 1 2 3 4 5 6 7 8 9 10 11 12 13 14
000
FTUS46 KLOX 220000 AAA
TAFVNY
TAF AMD
KVNY 220031Z 2201/2224 36020G30KT P6SM BKN200 WS015/36040KT
     FM220500 36015G25KT P6SM SCT200
     FM220900 35010KT P6SM SCT200
     FM221500 35014G20KT 4SM HZ FEW250
     FM222100 35012KT P6SM SKC=

USA.gov is the U.S. government's official web portal to all federal, state and local government web resources and services.